Gunnislake, United Kingdom
Current Conditions -  °F | °C
As of 9:20 PM on Wednesday 28 Jan 2015 (Local Time) from EGHQ Reporting Station
Scattered Clouds Scattered Clouds  
Wind Chill: 31°   Ceiling: Unl
Heat Index: 41°   Visibility: 6mi
Dew Point: 36°   Wind: 24mph
Humidity: 81%   Direction: 280°W
Pressure: 29.71"   Gusts: NA
Location:  50.52°N, 4.21°W
Report Text: EGHQ 282120Z 28021KT 9999 SCT022 05/02 Q1006 RESHRA
Loading
Personal Weather Stations






























Interactive Weather Map New forecast layout! Learn more

10-Day Weather Forecast

Advertisements
Track Severe Weather on mobile